createdAt,value
2023-03-31T00:01:09.833Z,18.85
2023-03-31T00:03:46.439Z,14.02
2023-03-31T00:06:18.989Z,12.07
2023-03-31T00:08:52.605Z,16.90
2023-03-31T00:11:22.782Z,11.38
2023-03-31T00:13:50.848Z,9.30
2023-03-31T00:16:19.485Z,8.30
2023-03-31T00:18:51.379Z,10.85
2023-03-31T00:21:25.917Z,10.93
2023-03-31T00:23:56.190Z,11.05
2023-03-31T00:26:26.508Z,7.75
2023-03-31T00:28:54.635Z,7.38
2023-03-31T00:31:23.600Z,6.43
2023-03-31T00:33:52.182Z,7.05
2023-03-31T00:36:27.656Z,7.72
2023-03-31T00:39:01.223Z,6.20
2023-03-31T00:41:30.978Z,8.93
2023-03-31T00:44:13.393Z,13.40
2023-03-31T00:46:55.350Z,17.35
2023-03-31T00:49:31.746Z,12.98
2023-03-31T00:52:22.045Z,19.67
2023-03-31T00:54:54.056Z,28.23
2023-03-31T00:57:24.766Z,26.88
2023-03-31T00:59:59.228Z,22.88
2023-03-31T01:02:28.873Z,17.40
2023-03-31T01:05:02.651Z,17.77
2023-03-31T01:07:46.530Z,21.70
2023-03-31T01:10:14.771Z,25.27
2023-03-31T01:12:47.445Z,22.58
2023-03-31T01:15:15.896Z,25.35
2023-03-31T01:17:45.264Z,28.23
2023-03-31T01:20:15.976Z,26.10
2023-03-31T01:23:20.468Z,31.42
2023-03-31T01:26:16.120Z,28.77
2023-03-31T01:29:11.585Z,15.32
2023-03-31T01:32:03.840Z,16.55
2023-03-31T01:35:02.947Z,13.02
2023-03-31T01:37:42.875Z,13.43
2023-03-31T01:40:11.050Z,14.85
2023-03-31T01:42:41.650Z,15.40
2023-03-31T01:45:30.715Z,17.38
2023-03-31T01:47:59.469Z,11.68
2023-03-31T01:50:35.808Z,10.77
2023-03-31T01:53:10.941Z,14.02
2023-03-31T01:55:51.459Z,17.13
2023-03-31T01:58:26.519Z,24.70
2023-03-31T02:01:03.916Z,26.75
2023-03-31T02:03:38.152Z,21.98
2023-03-31T02:06:12.896Z,21.02
2023-03-31T02:08:46.842Z,22.23
2023-03-31T02:11:15.729Z,19.92
2023-03-31T02:13:47.724Z,15.60
2023-03-31T02:16:22.368Z,14.48
2023-03-31T02:18:53.663Z,15.02
2023-03-31T02:21:23.127Z,16.85
2023-03-31T02:23:52.283Z,15.48
2023-03-31T02:26:27.693Z,14.68
2023-03-31T02:28:58.898Z,11.00
2023-03-31T02:31:39.434Z,11.68
2023-03-31T02:34:08.023Z,15.07
2023-03-31T02:36:36.947Z,10.32
2023-03-31T02:41:36.083Z,13.02
2023-03-31T02:44:04.263Z,13.25
2023-03-31T02:46:32.720Z,16.40
2023-03-31T02:49:05.286Z,14.20
2023-03-31T02:51:48.304Z,18.92
2023-03-31T02:57:06.074Z,17.70
2023-03-31T03:00:08.583Z,23.50
2023-03-31T03:03:16.721Z,22.48
2023-03-31T03:06:05.165Z,19.52
2023-03-31T03:09:36.371Z,17.50
2023-03-31T03:12:25.106Z,15.32
2023-03-31T03:15:24.931Z,18.40
2023-03-31T03:17:55.581Z,14.75
2023-03-31T03:20:26.457Z,23.70
2023-03-31T03:22:54.430Z,36.00
2023-03-31T03:25:22.349Z,30.50
2023-03-31T03:27:53.246Z,23.67
2023-03-31T03:30:21.942Z,21.17
2023-03-31T03:32:50.738Z,16.45
2023-03-31T03:35:18.696Z,18.75
2023-03-31T03:37:46.763Z,20.90
2023-03-31T03:40:15.572Z,23.50
2023-03-31T03:42:43.644Z,20.92
2023-03-31T03:45:11.693Z,19.88
2023-03-31T03:47:39.657Z,20.85
2023-03-31T03:50:08.281Z,19.75
2023-03-31T03:52:36.243Z,18.20
2023-03-31T03:55:05.918Z,19.70
2023-03-31T03:57:33.768Z,30.85
2023-03-31T04:00:01.753Z,42.78
2023-03-31T04:02:40.149Z,23.92
2023-03-31T04:05:08.581Z,26.55
2023-03-31T04:07:36.561Z,23.63
2023-03-31T04:10:04.781Z,27.42
2023-03-31T04:12:35.218Z,25.23
2023-03-31T04:15:03.404Z,25.13
2023-03-31T04:17:35.166Z,26.40
2023-03-31T04:20:11.949Z,30.38
2023-03-31T04:22:47.221Z,21.23
2023-03-31T04:25:16.886Z,15.55
2023-03-31T04:27:55.183Z,21.27
2023-03-31T04:30:24.838Z,23.17
2023-03-31T04:32:56.718Z,17.02
2023-03-31T04:35:26.686Z,25.23
2023-03-31T04:37:59.346Z,23.30
2023-03-31T04:40:27.638Z,27.40
2023-03-31T04:42:55.620Z,27.30
2023-03-31T04:45:23.650Z,26.20
2023-03-31T04:47:51.649Z,23.52
2023-03-31T04:50:20.540Z,22.67
2023-03-31T04:52:48.612Z,20.90
2023-03-31T04:55:16.819Z,28.38
2023-03-31T04:57:44.689Z,37.50
2023-03-31T05:00:13.388Z,60.47
2023-03-31T05:02:41.453Z,32.35
2023-03-31T05:05:10.706Z,24.80
2023-03-31T05:07:39.201Z,19.05
2023-03-31T05:10:07.919Z,15.48
2023-03-31T05:12:39.507Z,20.58
2023-03-31T05:15:08.598Z,22.55
2023-03-31T05:17:37.090Z,21.77
2023-03-31T05:20:08.845Z,21.08
2023-03-31T05:22:38.536Z,22.00
2023-03-31T05:25:08.568Z,27.20
2023-03-31T05:27:36.938Z,27.05
2023-03-31T05:30:05.939Z,26.52
2023-03-31T05:35:02.476Z,29.60
2023-03-31T05:37:31.037Z,62.60
2023-03-31T05:39:59.275Z,32.67
2023-03-31T05:42:27.289Z,26.98
2023-03-31T05:44:55.566Z,13.80
2023-03-31T05:47:23.615Z,21.83
2023-03-31T05:49:52.187Z,26.90
2023-03-31T05:52:20.199Z,35.35
2023-03-31T05:54:48.427Z,28.13
2023-03-31T05:57:16.812Z,28.58
2023-03-31T05:59:44.849Z,22.13
2023-03-31T06:02:16.334Z,24.77
2023-03-31T06:04:44.605Z,21.83
2023-03-31T06:07:13.679Z,30.42
2023-03-31T06:09:41.686Z,28.33
2023-03-31T06:12:09.790Z,20.00
2023-03-31T06:14:37.977Z,24.67
2023-03-31T06:17:06.005Z,30.88
2023-03-31T06:19:34.034Z,16.83
2023-03-31T06:22:02.414Z,22.17
2023-03-31T06:24:31.304Z,18.50
2023-03-31T06:27:01.187Z,15.38
2023-03-31T06:29:29.327Z,15.05
2023-03-31T06:31:57.411Z,13.95
2023-03-31T06:34:25.449Z,12.82
2023-03-31T06:36:53.737Z,16.15
2023-03-31T06:39:21.854Z,15.13
2023-03-31T06:41:49.719Z,17.23
2023-03-31T06:44:26.895Z,10.93
2023-03-31T06:46:55.293Z,12.10
2023-03-31T06:49:23.205Z,8.70
2023-03-31T06:51:51.579Z,22.25
2023-03-31T06:54:19.471Z,15.70
2023-03-31T06:56:47.628Z,12.52
2023-03-31T06:59:15.819Z,8.35
2023-03-31T07:01:45.611Z,13.30
2023-03-31T07:04:13.593Z,15.13
2023-03-31T07:06:41.731Z,12.25
2023-03-31T07:09:09.765Z,9.02
2023-03-31T07:11:37.785Z,7.82
2023-03-31T07:14:05.795Z,8.32
2023-03-31T07:16:33.718Z,14.48
2023-03-31T07:19:04.570Z,13.88
2023-03-31T07:21:32.887Z,8.32
2023-03-31T07:24:00.839Z,8.85
2023-03-31T07:26:29.136Z,10.30
2023-03-31T07:28:57.818Z,7.90
2023-03-31T07:33:54.197Z,9.35
2023-03-31T07:36:22.892Z,6.68
2023-03-31T07:41:21.187Z,15.63
2023-03-31T07:43:50.545Z,6.57
2023-03-31T07:46:25.268Z,6.43
2023-03-31T07:48:55.095Z,10.23
2023-03-31T07:51:27.329Z,9.90
2023-03-31T07:53:55.473Z,7.55
2023-03-31T07:56:25.150Z,7.00
2023-03-31T07:58:56.088Z,6.55
2023-03-31T08:01:26.644Z,6.20
2023-03-31T08:03:55.978Z,7.50
2023-03-31T08:06:26.203Z,6.45
2023-03-31T08:08:54.383Z,10.35
2023-03-31T08:11:22.522Z,7.20
2023-03-31T08:13:51.213Z,8.35
2023-03-31T08:16:19.514Z,7.47
2023-03-31T08:18:47.475Z,10.43
2023-03-31T08:21:15.456Z,7.25
2023-03-31T08:23:43.369Z,9.98
2023-03-31T08:26:16.421Z,7.40
2023-03-31T08:31:16.574Z,6.72
2023-03-31T08:33:45.596Z,5.47
2023-03-31T08:36:14.215Z,13.82
2023-03-31T08:38:46.442Z,9.07
2023-03-31T08:41:35.923Z,6.50
2023-03-31T08:44:11.805Z,10.07
2023-03-31T08:46:41.758Z,6.43
2023-03-31T08:49:16.907Z,8.88
2023-03-31T08:51:52.132Z,9.10
2023-03-31T08:54:25.583Z,8.30
2023-03-31T08:56:53.722Z,9.25
2023-03-31T08:59:51.537Z,10.50
2023-03-31T09:02:44.533Z,9.70
2023-03-31T09:05:27.781Z,8.73
2023-03-31T09:08:06.179Z,9.40
2023-03-31T09:10:46.072Z,9.73
2023-03-31T09:13:54.017Z,8.65
2023-03-31T09:16:32.049Z,8.70
2023-03-31T09:19:01.846Z,10.32
2023-03-31T09:21:34.368Z,8.23
2023-03-31T09:24:21.247Z,8.88
2023-03-31T09:27:02.214Z,7.78
2023-03-31T09:29:40.915Z,9.05
2023-03-31T09:32:16.802Z,8.20
2023-03-31T09:34:47.399Z,8.60
2023-03-31T09:37:15.748Z,12.73
2023-03-31T09:39:44.172Z,12.77
2023-03-31T09:44:50.376Z,9.13
2023-03-31T09:47:42.860Z,11.73
2023-03-31T09:50:12.033Z,7.20
2023-03-31T09:52:56.096Z,16.20
2023-03-31T09:55:38.963Z,7.43
2023-03-31T09:58:12.753Z,8.60
2023-03-31T10:01:06.614Z,7.28
2023-03-31T10:03:54.201Z,8.18
2023-03-31T10:06:24.707Z,8.55
2023-03-31T10:09:02.508Z,9.73
2023-03-31T10:11:31.631Z,9.43
2023-03-31T10:14:07.345Z,8.60
2023-03-31T10:16:47.466Z,7.43
2023-03-31T10:19:24.556Z,7.03
2023-03-31T10:21:59.573Z,7.45
2023-03-31T10:24:38.400Z,6.88
2023-03-31T10:27:22.039Z,6.78
2023-03-31T10:30:12.451Z,8.70
2023-03-31T10:32:43.470Z,8.77
2023-03-31T10:35:23.721Z,8.82
2023-03-31T10:37:57.030Z,7.47
2023-03-31T10:40:32.236Z,5.82
2023-03-31T10:43:13.977Z,7.30
2023-03-31T10:45:55.093Z,5.60
2023-03-31T10:48:42.225Z,4.75
2023-03-31T10:51:18.144Z,5.70
2023-03-31T10:53:51.635Z,6.38
2023-03-31T10:56:42.612Z,7.07
2023-03-31T10:59:32.767Z,6.38
2023-03-31T11:02:19.653Z,6.35
2023-03-31T11:07:47.125Z,6.15
2023-03-31T11:10:54.148Z,7.03
2023-03-31T11:13:22.149Z,6.15
2023-03-31T11:16:08.916Z,5.82
2023-03-31T11:18:43.043Z,8.55
2023-03-31T11:21:32.187Z,17.85
2023-03-31T11:24:27.198Z,5.63
2023-03-31T11:27:19.335Z,7.13
2023-03-31T11:30:01.691Z,6.03
2023-03-31T11:32:44.917Z,6.45
2023-03-31T11:35:31.397Z,6.88
2023-03-31T11:38:34.046Z,6.22
2023-03-31T11:41:21.949Z,7.30
2023-03-31T11:43:54.633Z,7.32
2023-03-31T11:46:33.493Z,6.03
2023-03-31T11:49:04.553Z,6.07
2023-03-31T11:51:47.602Z,6.28
2023-03-31T11:54:41.035Z,15.00
2023-03-31T11:57:22.225Z,7.85
2023-03-31T11:59:57.692Z,10.55
2023-03-31T12:02:51.549Z,8.90
2023-03-31T12:05:23.181Z,11.98
2023-03-31T12:08:08.850Z,23.55
2023-03-31T12:10:47.603Z,7.68
2023-03-31T12:13:24.542Z,12.25
2023-03-31T12:16:10.931Z,20.45
2023-03-31T12:19:20.019Z,13.65
2023-03-31T12:21:54.090Z,7.97
2023-03-31T12:24:22.206Z,8.10
2023-03-31T12:27:03.991Z,10.73
2023-03-31T12:29:37.348Z,7.97
2023-03-31T12:32:15.120Z,5.47
2023-03-31T12:34:56.774Z,7.78
2023-03-31T12:38:01.252Z,15.98
2023-03-31T12:40:47.580Z,9.50
2023-03-31T12:43:53.896Z,11.13
2023-03-31T12:46:52.108Z,10.68
2023-03-31T12:49:37.503Z,10.88
2023-03-31T12:52:42.909Z,10.00
2023-03-31T12:55:33.600Z,7.43
2023-03-31T12:58:24.997Z,11.52
2023-03-31T13:01:11.118Z,10.70
2023-03-31T13:04:04.799Z,8.25
2023-03-31T13:06:33.007Z,9.82
2023-03-31T13:09:06.195Z,14.55
2023-03-31T13:11:34.177Z,8.93
2023-03-31T13:14:12.572Z,10.70
2023-03-31T13:16:41.048Z,8.48
2023-03-31T13:19:13.731Z,5.85
2023-03-31T13:21:55.008Z,11.93
2023-03-31T13:24:24.688Z,38.88
2023-03-31T13:26:59.222Z,13.13
2023-03-31T13:29:44.556Z,12.82
2023-03-31T13:32:23.110Z,12.40
2023-03-31T13:35:01.005Z,7.78
2023-03-31T13:37:46.522Z,8.35
2023-03-31T13:40:43.987Z,11.30
2023-03-31T13:43:53.731Z,8.75
2023-03-31T13:46:34.229Z,7.80
2023-03-31T13:49:20.906Z,7.95
2023-03-31T13:52:01.077Z,5.95
2023-03-31T13:55:04.855Z,9.85
2023-03-31T13:57:36.027Z,7.90
2023-03-31T14:00:23.118Z,15.90
2023-03-31T14:05:56.218Z,9.18
2023-03-31T14:08:30.226Z,8.98
2023-03-31T14:11:27.248Z,9.27
2023-03-31T14:14:13.838Z,12.45
2023-03-31T14:17:02.914Z,16.58
2023-03-31T14:19:44.815Z,15.27
2023-03-31T14:22:32.592Z,17.58
2023-03-31T14:25:37.930Z,9.60
2023-03-31T14:28:46.992Z,20.00
2023-03-31T14:31:45.581Z,11.75
2023-03-31T14:34:32.734Z,8.32
2023-03-31T14:37:04.301Z,7.00
2023-03-31T14:39:37.407Z,5.65
2023-03-31T14:42:12.789Z,10.98
2023-03-31T14:44:47.018Z,9.38
2023-03-31T14:47:30.886Z,9.68
2023-03-31T14:50:04.302Z,8.32
2023-03-31T14:52:36.009Z,12.48
2023-03-31T14:55:04.960Z,16.80
2023-03-31T14:57:36.574Z,16.67
2023-03-31T15:00:08.756Z,6.60
2023-03-31T15:02:41.519Z,6.28
2023-03-31T15:05:22.265Z,11.70
2023-03-31T15:07:51.109Z,6.57
2023-03-31T15:10:22.699Z,7.07
2023-03-31T15:12:52.136Z,7.40
2023-03-31T15:15:24.196Z,12.48
2023-03-31T15:17:55.454Z,4.65
2023-03-31T15:20:38.457Z,6.60
2023-03-31T15:23:27.096Z,22.05
2023-03-31T15:26:08.656Z,8.02
2023-03-31T15:28:47.750Z,15.20
2023-03-31T15:31:17.469Z,12.43
2023-03-31T15:33:47.474Z,6.35
2023-03-31T15:36:16.248Z,8.05
2023-03-31T15:38:44.915Z,7.32
2023-03-31T15:43:42.285Z,7.70
2023-03-31T15:46:18.819Z,8.15
2023-03-31T15:48:56.777Z,9.25
2023-03-31T15:51:36.225Z,11.02
2023-03-31T15:54:25.027Z,11.82
2023-03-31T15:56:59.861Z,78.70
2023-03-31T15:59:41.631Z,59.47
2023-03-31T16:02:22.774Z,39.10
2023-03-31T16:04:56.840Z,23.83
2023-03-31T16:07:30.255Z,24.20
2023-03-31T16:10:03.790Z,15.15
2023-03-31T16:12:50.477Z,42.85
2023-03-31T16:15:30.953Z,17.17
2023-03-31T16:18:11.187Z,25.30
2023-03-31T16:20:50.925Z,29.80
2023-03-31T16:23:28.550Z,22.50
2023-03-31T16:25:56.749Z,20.30
2023-03-31T16:28:31.769Z,14.35
2023-03-31T16:31:02.359Z,32.80
2023-03-31T16:33:32.459Z,22.20
2023-03-31T16:36:03.127Z,22.65
2023-03-31T16:38:31.623Z,39.47
2023-03-31T16:41:00.935Z,33.53
2023-03-31T16:43:31.938Z,28.70
2023-03-31T16:46:04.417Z,33.72
2023-03-31T16:48:36.781Z,24.60
2023-03-31T16:51:06.409Z,27.98
2023-03-31T16:53:37.368Z,31.00
2023-03-31T16:56:12.159Z,32.28
2023-03-31T16:58:41.856Z,63.40
2023-03-31T17:01:10.723Z,36.53
2023-03-31T17:03:42.302Z,58.53
2023-03-31T17:06:13.894Z,41.58
2023-03-31T17:08:42.702Z,31.92
2023-03-31T17:11:14.876Z,52.53
2023-03-31T17:13:45.025Z,35.58
2023-03-31T17:16:22.101Z,24.02
2023-03-31T17:18:57.889Z,28.58
2023-03-31T17:21:26.707Z,21.83
2023-03-31T17:23:55.061Z,51.45
2023-03-31T17:26:24.153Z,48.40
2023-03-31T17:28:53.129Z,35.60
2023-03-31T17:31:22.369Z,32.80
2023-03-31T17:33:50.858Z,36.38
2023-03-31T17:38:47.615Z,24.95
2023-03-31T17:41:18.131Z,17.55
2023-03-31T17:43:49.194Z,17.00
2023-03-31T17:46:19.454Z,31.75
2023-03-31T17:48:48.837Z,36.63
2023-03-31T17:51:19.461Z,13.93
2023-03-31T17:53:48.531Z,17.52
2023-03-31T17:56:18.301Z,13.93
2023-03-31T17:58:47.793Z,16.42
2023-03-31T18:01:16.619Z,16.33
2023-03-31T18:03:46.698Z,16.48
2023-03-31T18:06:15.624Z,15.32
2023-03-31T18:08:45.416Z,16.75
2023-03-31T18:11:14.960Z,21.80
2023-03-31T18:13:43.731Z,13.50
2023-03-31T18:18:42.822Z,13.18
2023-03-31T18:21:13.499Z,15.60
2023-03-31T18:23:42.353Z,15.55
2023-03-31T18:28:41.526Z,15.43
2023-03-31T18:31:11.829Z,13.43
2023-03-31T18:33:41.338Z,16.80
2023-03-31T18:36:17.326Z,15.63
2023-03-31T18:38:47.778Z,20.25
2023-03-31T18:41:20.662Z,23.60
2023-03-31T18:43:52.402Z,24.63
2023-03-31T18:46:21.541Z,11.25
2023-03-31T18:48:50.842Z,37.72
2023-03-31T18:51:19.567Z,41.83
2023-03-31T18:53:47.895Z,43.22
2023-03-31T18:56:16.459Z,33.20
2023-03-31T18:58:44.988Z,20.40
2023-03-31T19:01:13.661Z,26.27
2023-03-31T19:03:44.043Z,37.40
2023-03-31T19:06:12.659Z,55.47
2023-03-31T19:08:41.312Z,46.33
2023-03-31T19:11:17.392Z,42.83
2023-03-31T19:13:46.046Z,36.70
2023-03-31T19:16:14.888Z,47.25
2023-03-31T19:18:44.056Z,54.67
2023-03-31T19:21:12.792Z,56.00
2023-03-31T19:23:41.442Z,46.78
2023-03-31T19:26:14.222Z,71.28
2023-03-31T19:28:43.398Z,38.17
2023-03-31T19:31:12.394Z,41.38
2023-03-31T19:36:09.098Z,52.40
2023-03-31T19:38:37.630Z,54.35
2023-03-31T19:41:06.696Z,51.25
2023-03-31T19:43:35.321Z,69.05
2023-03-31T19:46:04.155Z,61.20
2023-03-31T19:51:08.720Z,42.00
2023-03-31T19:53:38.934Z,57.80
2023-03-31T19:56:10.276Z,36.83
2023-03-31T19:58:40.399Z,28.48
2023-03-31T20:01:28.854Z,76.55
2023-03-31T20:03:57.671Z,62.72
2023-03-31T20:06:28.988Z,65.95
2023-03-31T20:09:01.463Z,69.85
2023-03-31T20:11:32.437Z,67.22
2023-03-31T20:14:02.156Z,67.20
2023-03-31T20:16:32.016Z,65.65
2023-03-31T20:19:04.886Z,68.85
2023-03-31T20:21:36.622Z,75.57
2023-03-31T20:24:06.417Z,76.40
2023-03-31T20:26:35.531Z,70.93
2023-03-31T20:29:04.285Z,78.95
2023-03-31T20:31:38.009Z,65.28
2023-03-31T20:34:12.534Z,66.30
2023-03-31T20:36:43.340Z,28.02
2023-03-31T20:39:14.438Z,31.27
2023-03-31T20:41:43.802Z,44.08
2023-03-31T20:44:15.748Z,44.30
2023-03-31T20:46:45.231Z,41.47
2023-03-31T20:49:13.870Z,45.55
2023-03-31T20:51:43.005Z,46.10
2023-03-31T20:56:41.018Z,48.20
2023-03-31T20:59:12.852Z,48.70
2023-03-31T21:01:42.772Z,28.38
2023-03-31T21:04:11.884Z,83.03
2023-03-31T21:06:42.717Z,65.28
2023-03-31T21:09:14.941Z,46.22
2023-03-31T21:11:43.148Z,53.30
2023-03-31T21:14:14.794Z,47.67
2023-03-31T21:16:43.300Z,57.00
2023-03-31T21:19:11.709Z,57.00
2023-03-31T21:21:41.542Z,41.47
2023-03-31T21:24:11.833Z,63.33
2023-03-31T21:26:40.513Z,42.60
2023-03-31T21:29:08.574Z,32.28
2023-03-31T21:31:36.827Z,76.57
2023-03-31T21:34:05.490Z,39.45
2023-03-31T21:36:33.866Z,36.40
2023-03-31T21:39:02.273Z,42.35
2023-03-31T21:41:31.048Z,30.30
2023-03-31T21:44:02.762Z,37.55
2023-03-31T21:46:33.838Z,50.53
2023-03-31T21:49:03.053Z,40.47
2023-03-31T21:51:31.085Z,38.38
2023-03-31T21:53:58.955Z,38.47
2023-03-31T21:56:31.984Z,35.20
2023-03-31T21:59:01.655Z,44.28
2023-03-31T22:01:29.839Z,40.65
2023-03-31T22:03:59.398Z,47.30
2023-03-31T22:06:27.467Z,39.05
2023-03-31T22:08:55.687Z,34.83
2023-03-31T22:11:23.936Z,39.58
2023-03-31T22:13:52.052Z,39.10
2023-03-31T22:16:22.856Z,42.28
2023-03-31T22:18:53.046Z,45.63
2023-03-31T22:21:24.058Z,41.95
2023-03-31T22:23:59.957Z,45.42
2023-03-31T22:26:29.401Z,36.05
2023-03-31T22:28:57.708Z,33.67
2023-03-31T22:31:27.170Z,40.42
2023-03-31T22:33:55.215Z,44.70
2023-03-31T22:36:23.780Z,28.30
2023-03-31T22:38:51.749Z,30.63
2023-03-31T22:41:19.795Z,36.72
2023-03-31T22:43:47.890Z,36.78
2023-03-31T22:46:16.219Z,39.47
2023-03-31T22:48:47.688Z,37.15
2023-03-31T22:51:16.483Z,35.00
2023-03-31T22:53:50.195Z,37.17
2023-03-31T22:56:19.197Z,33.95
2023-03-31T22:58:47.976Z,36.15
2023-03-31T23:01:18.933Z,35.45
2023-03-31T23:03:47.340Z,36.10
2023-03-31T23:06:16.594Z,35.85
2023-03-31T23:08:49.388Z,33.33
2023-03-31T23:11:18.963Z,33.30
2023-03-31T23:13:47.615Z,32.63
2023-03-31T23:16:24.008Z,29.02
2023-03-31T23:18:54.137Z,31.80
2023-03-31T23:21:24.948Z,31.27
2023-03-31T23:23:55.772Z,34.42
2023-03-31T23:26:26.564Z,27.55
2023-03-31T23:28:55.107Z,31.90
2023-03-31T23:31:26.245Z,31.65
2023-03-31T23:33:54.322Z,28.08
2023-03-31T23:36:22.784Z,42.17
2023-03-31T23:38:53.810Z,31.17
2023-03-31T23:41:23.121Z,25.33
2023-03-31T23:43:54.797Z,24.67
2023-03-31T23:46:24.645Z,25.40
2023-03-31T23:48:53.110Z,33.17
2023-03-31T23:51:21.117Z,28.40
2023-03-31T23:53:49.179Z,25.10
2023-03-31T23:56:17.813Z,26.33
2023-03-31T23:58:46.113Z,26.80
